createdAt,value
2023-03-02T00:01:00.841Z,22.50
2023-03-02T00:03:21.950Z,21.63
2023-03-02T00:05:47.109Z,21.00
2023-03-02T00:08:09.043Z,21.17
2023-03-02T00:10:30.845Z,21.73
2023-03-02T00:12:52.437Z,21.70
2023-03-02T00:15:13.378Z,22.00
2023-03-02T00:17:34.629Z,22.47
2023-03-02T00:19:55.861Z,21.80
2023-03-02T00:22:19.130Z,21.43
2023-03-02T00:24:40.264Z,22.23
2023-03-02T00:27:01.588Z,21.97
2023-03-02T00:29:22.938Z,21.73
2023-03-02T00:31:44.403Z,22.00
2023-03-02T00:34:05.638Z,22.97
2023-03-02T00:36:27.245Z,21.20
2023-03-02T00:38:52.044Z,22.10
2023-03-02T00:41:13.370Z,21.87
2023-03-02T00:43:34.515Z,21.43
2023-03-02T00:45:55.789Z,22.43
2023-03-02T00:48:16.884Z,23.47
2023-03-02T00:50:41.033Z,20.80
2023-03-02T00:53:02.354Z,21.47
2023-03-02T00:55:24.885Z,22.60
2023-03-02T00:57:55.210Z,21.73
2023-03-02T01:00:16.472Z,21.37
2023-03-02T01:02:39.150Z,22.13
2023-03-02T01:05:00.658Z,21.80
2023-03-02T01:07:22.334Z,22.20
2023-03-02T01:09:44.212Z,20.87
2023-03-02T01:12:09.332Z,22.00
2023-03-02T01:14:30.798Z,19.83
2023-03-02T01:16:52.207Z,21.93
2023-03-02T01:19:13.640Z,21.60
2023-03-02T01:21:35.141Z,21.63
2023-03-02T01:23:56.256Z,21.43
2023-03-02T01:26:17.736Z,22.57
2023-03-02T01:28:40.300Z,21.13
2023-03-02T01:31:04.482Z,22.10
2023-03-02T01:33:25.937Z,22.30
2023-03-02T01:35:47.779Z,20.23
2023-03-02T01:38:09.065Z,22.07
2023-03-02T01:43:47.581Z,21.23
2023-03-02T01:46:11.664Z,22.07
2023-03-02T01:48:34.614Z,20.93
2023-03-02T01:50:56.140Z,22.00
2023-03-02T01:53:17.715Z,20.93
2023-03-02T01:55:39.910Z,21.67
2023-03-02T01:58:02.786Z,22.70
2023-03-02T02:00:27.161Z,21.40
2023-03-02T02:02:48.826Z,22.67
2023-03-02T02:05:10.895Z,21.43
2023-03-02T02:07:32.305Z,22.23
2023-03-02T02:09:54.354Z,22.27
2023-03-02T02:12:16.598Z,20.87
2023-03-02T02:14:37.675Z,21.47
2023-03-02T02:17:00.501Z,22.37
2023-03-02T02:19:34.983Z,22.63
2023-03-02T02:21:56.067Z,23.03
2023-03-02T02:24:22.105Z,21.37
2023-03-02T02:26:46.380Z,21.93
2023-03-02T02:29:12.275Z,20.90
2023-03-02T02:31:36.311Z,21.53
2023-03-02T02:33:58.697Z,22.80
2023-03-02T02:36:22.094Z,22.33
2023-03-02T02:38:43.972Z,21.90
2023-03-02T02:41:06.380Z,22.00
2023-03-02T02:43:29.844Z,22.27
2023-03-02T02:45:52.817Z,22.47
2023-03-02T02:48:16.318Z,22.47
2023-03-02T02:50:38.057Z,21.87
2023-03-02T02:53:00.869Z,21.60
2023-03-02T02:55:23.955Z,22.67
2023-03-02T02:57:45.134Z,23.07
2023-03-02T03:00:12.238Z,22.57
2023-03-02T03:02:35.954Z,22.70
2023-03-02T03:05:02.969Z,21.17
2023-03-02T03:07:25.498Z,21.27
2023-03-02T03:09:47.674Z,20.83
2023-03-02T03:12:12.042Z,21.20
2023-03-02T03:14:35.841Z,21.80
2023-03-02T03:16:58.496Z,21.70
2023-03-02T03:19:20.977Z,21.73
2023-03-02T03:21:41.874Z,21.10
2023-03-02T03:24:03.376Z,22.00
2023-03-02T03:26:24.458Z,22.70
2023-03-02T03:28:45.707Z,21.27
2023-03-02T03:31:07.034Z,22.03
2023-03-02T03:33:29.518Z,21.63
2023-03-02T03:35:50.883Z,21.20
2023-03-02T03:38:12.193Z,21.23
2023-03-02T03:40:34.791Z,21.63
2023-03-02T03:42:55.881Z,21.00
2023-03-02T03:45:17.177Z,20.23
2023-03-02T03:47:38.429Z,21.13
2023-03-02T03:50:01.107Z,20.37
2023-03-02T03:52:30.635Z,21.47
2023-03-02T03:54:52.018Z,21.97
2023-03-02T03:57:13.257Z,22.03
2023-03-02T03:59:36.040Z,21.37
2023-03-02T04:01:58.403Z,22.67
2023-03-02T04:04:20.845Z,22.20
2023-03-02T04:06:43.456Z,21.73
2023-03-02T04:09:05.687Z,22.23
2023-03-02T04:11:26.891Z,21.87
2023-03-02T04:13:48.870Z,21.77
2023-03-02T04:16:09.818Z,21.93
2023-03-02T04:18:30.966Z,22.40
2023-03-02T04:20:52.223Z,22.00
2023-03-02T04:23:14.787Z,21.53
2023-03-02T04:25:36.007Z,21.00
2023-03-02T04:27:57.245Z,21.70
2023-03-02T04:30:20.071Z,21.60
2023-03-02T04:32:41.354Z,21.83
2023-03-02T04:35:02.683Z,21.70
2023-03-02T04:37:23.935Z,21.30
2023-03-02T04:39:50.088Z,21.57
2023-03-02T04:42:11.504Z,21.83
2023-03-02T04:44:34.815Z,21.57
2023-03-02T04:46:56.145Z,22.73
2023-03-02T04:49:18.051Z,21.90
2023-03-02T04:51:40.567Z,22.00
2023-03-02T04:54:02.858Z,20.77
2023-03-02T04:56:25.441Z,21.40
2023-03-02T04:58:46.500Z,21.40
2023-03-02T05:01:07.754Z,22.43
2023-03-02T05:03:29.081Z,21.03
2023-03-02T05:05:50.190Z,20.70
2023-03-02T05:08:11.481Z,20.83
2023-03-02T05:10:32.834Z,20.90
2023-03-02T05:12:58.184Z,22.17
2023-03-02T05:15:19.306Z,20.93
2023-03-02T05:17:40.690Z,22.97
2023-03-02T05:20:02.066Z,21.23
2023-03-02T05:22:23.460Z,21.93
2023-03-02T05:24:44.805Z,21.00
2023-03-02T05:27:06.013Z,21.90
2023-03-02T05:29:28.750Z,21.47
2023-03-02T05:31:50.479Z,22.87
2023-03-02T05:34:13.414Z,21.53
2023-03-02T05:36:34.766Z,23.90
2023-03-02T05:38:56.216Z,22.03
2023-03-02T05:41:17.323Z,21.60
2023-03-02T05:43:38.542Z,21.70
2023-03-02T05:46:01.272Z,22.37
2023-03-02T05:48:22.493Z,22.63
2023-03-02T05:50:44.019Z,22.40
2023-03-02T05:53:05.395Z,22.73
2023-03-02T05:55:26.350Z,22.63
2023-03-02T05:57:49.271Z,22.03
2023-03-02T06:00:11.917Z,22.60
2023-03-02T06:02:34.203Z,21.97
2023-03-02T06:04:55.214Z,22.27
2023-03-02T06:07:16.392Z,21.63
2023-03-02T06:09:38.084Z,22.97
2023-03-02T06:11:59.400Z,23.07
2023-03-02T06:14:20.343Z,21.47
2023-03-02T06:16:41.797Z,22.77
2023-03-02T06:19:04.238Z,22.53
2023-03-02T06:21:25.207Z,21.50
2023-03-02T06:23:47.125Z,22.57
2023-03-02T06:26:09.289Z,21.93
2023-03-02T06:28:31.794Z,21.30
2023-03-02T06:30:54.035Z,21.53
2023-03-02T06:33:15.620Z,22.93
2023-03-02T06:35:38.303Z,21.30
2023-03-02T06:37:59.470Z,23.87
2023-03-02T06:40:21.657Z,23.97
2023-03-02T06:42:43.446Z,23.30
2023-03-02T06:45:04.544Z,22.27
2023-03-02T06:47:25.521Z,22.80
2023-03-02T06:49:46.876Z,22.43
2023-03-02T06:52:10.944Z,22.30
2023-03-02T06:54:32.207Z,21.93
2023-03-02T06:56:53.583Z,22.17
2023-03-02T06:59:14.984Z,23.10
2023-03-02T07:01:36.624Z,22.77
2023-03-02T07:03:58.154Z,23.70
2023-03-02T07:06:19.457Z,23.27
2023-03-02T07:08:42.185Z,22.90
2023-03-02T07:11:05.626Z,22.20
2023-03-02T07:13:26.876Z,23.03
2023-03-02T07:15:47.985Z,21.93
2023-03-02T07:18:09.202Z,22.60
2023-03-02T07:20:30.766Z,23.57
2023-03-02T07:22:51.781Z,23.40
2023-03-02T07:25:14.870Z,23.60
2023-03-02T07:27:36.477Z,23.13
2023-03-02T07:29:57.522Z,22.60
2023-03-02T07:32:19.020Z,23.67
2023-03-02T07:34:40.237Z,22.63
2023-03-02T07:37:01.504Z,22.23
2023-03-02T07:39:22.841Z,22.27
2023-03-02T07:41:45.194Z,22.03
2023-03-02T07:44:06.455Z,21.50
2023-03-02T07:46:27.716Z,20.90
2023-03-02T07:48:48.873Z,21.97
2023-03-02T07:51:10.274Z,22.87
2023-03-02T07:53:31.752Z,23.17
2023-03-02T07:55:52.755Z,21.20
2023-03-02T07:58:15.301Z,21.83
2023-03-02T08:00:37.291Z,21.67
2023-03-02T08:02:58.359Z,21.17
2023-03-02T08:05:19.705Z,20.90
2023-03-02T08:07:40.928Z,19.87
2023-03-02T08:10:02.229Z,20.17
2023-03-02T08:12:23.656Z,19.70
2023-03-02T08:14:48.240Z,19.53
2023-03-02T08:17:09.634Z,19.97
2023-03-02T08:19:30.962Z,19.93
2023-03-02T08:21:52.328Z,19.93
2023-03-02T08:24:13.526Z,18.63
2023-03-02T08:26:34.904Z,19.10
2023-03-02T08:28:56.220Z,18.67
2023-03-02T08:31:18.681Z,18.77
2023-03-02T08:33:40.121Z,19.27
2023-03-02T08:36:01.813Z,19.03
2023-03-02T08:38:22.763Z,19.87
2023-03-02T08:40:43.886Z,19.70
2023-03-02T08:43:07.188Z,18.57
2023-03-02T08:45:29.860Z,18.93
2023-03-02T08:47:53.649Z,18.87
2023-03-02T08:50:14.662Z,18.67
2023-03-02T08:52:35.799Z,18.80
2023-03-02T08:54:56.876Z,18.70
2023-03-02T08:57:19.713Z,18.60
2023-03-02T08:59:42.271Z,18.43
2023-03-02T09:02:03.533Z,18.47
2023-03-02T09:04:26.087Z,17.97
2023-03-02T09:06:47.387Z,21.50
2023-03-02T09:09:09.094Z,21.43
2023-03-02T09:11:30.435Z,20.97
2023-03-02T09:13:51.811Z,20.70
2023-03-02T09:16:14.338Z,20.30
2023-03-02T09:18:36.475Z,20.47
2023-03-02T09:20:59.184Z,21.03
2023-03-02T09:23:20.745Z,21.50
2023-03-02T09:25:41.661Z,19.97
2023-03-02T09:28:02.849Z,20.33
2023-03-02T09:30:24.014Z,21.17
2023-03-02T09:32:45.348Z,20.93
2023-03-02T09:35:06.603Z,20.27
2023-03-02T09:37:30.190Z,20.70
2023-03-02T09:39:51.264Z,19.33
2023-03-02T09:42:19.016Z,18.83
2023-03-02T09:44:51.159Z,19.23
2023-03-02T09:47:29.877Z,19.30
2023-03-02T09:49:59.179Z,18.77
2023-03-02T09:52:28.565Z,16.83
2023-03-02T09:54:51.121Z,18.50
2023-03-02T09:57:20.989Z,18.40
2023-03-02T09:59:44.580Z,18.00
2023-03-02T10:02:12.318Z,18.60
2023-03-02T10:04:38.715Z,18.17
2023-03-02T10:07:11.885Z,18.70
2023-03-02T10:09:33.113Z,18.77
2023-03-02T10:12:09.019Z,17.93
2023-03-02T10:14:34.262Z,19.00
2023-03-02T10:17:01.419Z,18.60
2023-03-02T10:19:26.508Z,18.80
2023-03-02T10:21:49.828Z,19.37
2023-03-02T10:24:18.805Z,19.03
2023-03-02T10:26:41.296Z,18.13
2023-03-02T10:29:07.614Z,19.63
2023-03-02T10:31:29.843Z,18.33
2023-03-02T10:33:51.268Z,19.23
2023-03-02T10:36:20.707Z,18.93
2023-03-02T10:38:41.938Z,20.07
2023-03-02T10:41:04.012Z,18.43
2023-03-02T10:43:28.617Z,18.43
2023-03-02T10:46:00.259Z,18.23
2023-03-02T10:48:21.412Z,18.97
2023-03-02T10:50:44.163Z,18.67
2023-03-02T10:53:07.677Z,18.57
2023-03-02T10:55:28.730Z,18.60
2023-03-02T10:58:01.038Z,18.20
2023-03-02T11:00:22.911Z,17.93
2023-03-02T11:02:52.773Z,18.97
2023-03-02T11:05:21.091Z,17.83
2023-03-02T11:07:52.630Z,17.40
2023-03-02T11:10:19.422Z,19.37
2023-03-02T11:12:46.120Z,18.93
2023-03-02T11:15:17.132Z,18.20
2023-03-02T11:17:38.721Z,18.57
2023-03-02T11:20:02.640Z,17.87
2023-03-02T11:22:28.608Z,17.00
2023-03-02T11:24:52.011Z,17.60
2023-03-02T11:27:15.320Z,17.30
2023-03-02T11:29:38.412Z,17.50
2023-03-02T11:32:02.491Z,18.33
2023-03-02T11:34:26.551Z,18.07
2023-03-02T11:36:58.749Z,18.23
2023-03-02T11:39:24.346Z,17.20
2023-03-02T11:41:45.507Z,19.00
2023-03-02T11:44:13.296Z,17.93
2023-03-02T11:46:34.547Z,17.80
2023-03-02T11:48:57.166Z,18.57
2023-03-02T11:51:19.367Z,18.73
2023-03-02T11:53:43.403Z,18.80
2023-03-02T11:56:04.753Z,18.87
2023-03-02T11:58:26.757Z,18.53
2023-03-02T12:00:49.002Z,18.23
2023-03-02T12:03:21.412Z,17.73
2023-03-02T12:05:43.557Z,18.40
2023-03-02T12:08:05.685Z,18.37
2023-03-02T12:10:32.423Z,18.80
2023-03-02T12:13:00.940Z,19.40
2023-03-02T12:15:30.391Z,18.17
2023-03-02T12:17:52.151Z,18.07
2023-03-02T12:20:26.282Z,18.57
2023-03-02T12:22:47.659Z,17.53
2023-03-02T12:25:25.757Z,18.47
2023-03-02T12:27:48.842Z,17.00
2023-03-02T12:30:12.106Z,17.70
2023-03-02T12:32:33.291Z,17.47
2023-03-02T12:34:56.035Z,19.90
2023-03-02T12:37:19.157Z,18.77
2023-03-02T12:39:52.852Z,18.33
2023-03-02T12:42:24.589Z,17.97
2023-03-02T12:44:52.333Z,18.80
2023-03-02T12:47:15.636Z,18.80
2023-03-02T12:49:45.530Z,18.87
2023-03-02T12:52:21.128Z,18.53
2023-03-02T12:54:43.187Z,19.70
2023-03-02T12:57:09.057Z,18.17
2023-03-02T12:59:30.727Z,18.77
2023-03-02T13:01:53.363Z,18.13
2023-03-02T13:04:21.450Z,19.73
2023-03-02T13:06:42.764Z,18.63
2023-03-02T13:09:04.034Z,19.60
2023-03-02T13:11:27.895Z,19.47
2023-03-02T13:13:49.892Z,17.77
2023-03-02T13:16:20.486Z,19.20
2023-03-02T13:18:43.324Z,19.00
2023-03-02T13:21:05.517Z,18.10
2023-03-02T13:23:27.633Z,18.97
2023-03-02T13:25:49.846Z,19.07
2023-03-02T13:28:25.288Z,20.20
2023-03-02T13:30:47.982Z,19.03
2023-03-02T13:33:19.211Z,18.43
2023-03-02T13:35:46.348Z,18.93
2023-03-02T13:38:14.784Z,18.90
2023-03-02T13:40:40.232Z,18.70
2023-03-02T13:43:01.150Z,19.03
2023-03-02T13:45:24.042Z,18.10
2023-03-02T13:47:45.234Z,19.07
2023-03-02T13:50:10.138Z,19.40
2023-03-02T13:52:32.529Z,18.30
2023-03-02T13:54:53.746Z,18.73
2023-03-02T13:57:16.961Z,18.47
2023-03-02T13:59:38.271Z,19.37
2023-03-02T14:01:59.581Z,18.57
2023-03-02T14:04:23.279Z,19.43
2023-03-02T14:06:45.030Z,19.33
2023-03-02T14:09:07.523Z,19.70
2023-03-02T14:11:31.866Z,19.60
2023-03-02T14:13:54.912Z,19.40
2023-03-02T14:16:16.544Z,19.67
2023-03-02T14:18:39.718Z,18.77
2023-03-02T14:21:01.328Z,19.27
2023-03-02T14:23:22.442Z,18.67
2023-03-02T14:25:45.040Z,19.53
2023-03-02T14:28:06.246Z,20.47
2023-03-02T14:30:27.573Z,19.10
2023-03-02T14:32:48.897Z,19.50
2023-03-02T14:35:11.591Z,18.93
2023-03-02T14:37:33.179Z,18.67
2023-03-02T14:39:55.613Z,18.17
2023-03-02T14:42:19.058Z,19.50
2023-03-02T14:44:40.155Z,20.10
2023-03-02T14:47:01.326Z,20.70
2023-03-02T14:49:22.439Z,18.50
2023-03-02T14:51:45.118Z,18.90
2023-03-02T14:54:07.653Z,20.57
2023-03-02T14:56:28.871Z,19.03
2023-03-02T14:58:51.688Z,19.17
2023-03-02T15:01:12.781Z,19.60
2023-03-02T15:03:33.788Z,18.90
2023-03-02T15:06:01.291Z,18.80
2023-03-02T15:08:24.123Z,19.03
2023-03-02T15:10:46.817Z,18.53
2023-03-02T15:13:07.767Z,18.60
2023-03-02T15:15:30.248Z,19.43
2023-03-02T15:17:51.506Z,18.87
2023-03-02T15:20:14.410Z,20.43
2023-03-02T15:22:35.776Z,19.90
2023-03-02T15:24:57.199Z,19.30
2023-03-02T15:27:19.628Z,19.73
2023-03-02T15:29:43.797Z,19.87
2023-03-02T15:32:07.568Z,20.27
2023-03-02T15:34:28.418Z,20.33
2023-03-02T15:36:49.567Z,19.77
2023-03-02T15:39:13.051Z,20.27
2023-03-02T15:41:34.794Z,19.03
2023-03-02T15:43:56.384Z,18.43
2023-03-02T15:46:17.635Z,19.87
2023-03-02T15:48:40.259Z,19.97
2023-03-02T15:51:02.607Z,19.37
2023-03-02T15:53:23.849Z,19.63
2023-03-02T15:55:45.703Z,19.63
2023-03-02T15:58:08.216Z,19.93
2023-03-02T16:00:29.333Z,20.93
2023-03-02T16:02:50.638Z,20.33
2023-03-02T16:05:13.789Z,19.67
2023-03-02T16:07:37.200Z,20.30
2023-03-02T16:09:58.106Z,18.97
2023-03-02T16:12:23.275Z,18.87
2023-03-02T16:14:44.590Z,19.47
2023-03-02T16:17:05.875Z,20.20
2023-03-02T16:19:27.654Z,19.33
2023-03-02T16:21:49.990Z,19.63
2023-03-02T16:24:13.111Z,21.00
2023-03-02T16:26:34.882Z,21.40
2023-03-02T16:28:55.905Z,21.17
2023-03-02T16:31:19.818Z,20.60
2023-03-02T16:33:41.657Z,22.07
2023-03-02T16:36:02.872Z,23.37
2023-03-02T16:38:25.599Z,20.97
2023-03-02T16:40:47.747Z,23.13
2023-03-02T16:43:10.731Z,22.27
2023-03-02T16:45:31.781Z,21.97
2023-03-02T16:47:52.921Z,19.97
2023-03-02T16:50:15.020Z,21.63
2023-03-02T16:52:35.951Z,23.40
2023-03-02T16:54:58.658Z,22.97
2023-03-02T16:57:19.872Z,22.93
2023-03-02T16:59:41.176Z,23.57
2023-03-02T17:02:02.676Z,24.27
2023-03-02T17:04:24.159Z,23.60
2023-03-02T17:06:59.903Z,23.53
2023-03-02T17:09:21.961Z,25.10
2023-03-02T17:11:44.705Z,25.67
2023-03-02T17:14:05.924Z,25.57
2023-03-02T17:16:27.316Z,24.80
2023-03-02T17:18:48.558Z,24.20
2023-03-02T17:21:09.824Z,23.70
2023-03-02T17:23:31.518Z,24.97
2023-03-02T17:25:52.587Z,24.13
2023-03-02T17:28:15.626Z,27.83
2023-03-02T17:30:36.782Z,25.67
2023-03-02T17:32:58.084Z,24.00
2023-03-02T17:35:19.261Z,24.90
2023-03-02T17:37:40.407Z,24.00
2023-03-02T17:40:01.250Z,24.00
2023-03-02T17:42:22.421Z,23.40
2023-03-02T17:44:45.102Z,24.77
2023-03-02T17:47:08.093Z,23.20
2023-03-02T17:49:29.267Z,25.07
2023-03-02T17:51:50.634Z,24.07
2023-03-02T17:54:11.803Z,23.70
2023-03-02T17:56:33.093Z,23.17
2023-03-02T17:58:55.354Z,25.20
2023-03-02T18:01:17.840Z,24.70
2023-03-02T18:03:39.040Z,24.47
2023-03-02T18:05:59.919Z,24.57
2023-03-02T18:08:21.118Z,25.97
2023-03-02T18:10:42.394Z,24.90
2023-03-02T18:13:03.535Z,24.40
2023-03-02T18:15:27.068Z,26.67
2023-03-02T18:17:49.685Z,24.63
2023-03-02T18:20:11.643Z,25.10
2023-03-02T18:22:32.670Z,26.30
2023-03-02T18:24:54.012Z,26.17
2023-03-02T18:27:15.389Z,26.27
2023-03-02T18:29:36.778Z,25.77
2023-03-02T18:31:58.201Z,25.87
2023-03-02T18:34:20.865Z,26.70
2023-03-02T18:36:41.897Z,26.30
2023-03-02T18:39:03.962Z,25.77
2023-03-02T18:41:25.198Z,27.63
2023-03-02T18:43:46.120Z,26.80
2023-03-02T18:46:09.473Z,27.63
2023-03-02T18:48:31.358Z,25.53
2023-03-02T18:50:53.760Z,24.90
2023-03-02T18:53:14.806Z,26.77
2023-03-02T18:55:37.127Z,26.47
2023-03-02T18:57:58.193Z,28.23
2023-03-02T19:00:22.147Z,28.33
2023-03-02T19:02:43.576Z,27.07
2023-03-02T19:05:05.142Z,27.17
2023-03-02T19:07:27.443Z,27.63
2023-03-02T19:09:49.158Z,29.60
2023-03-02T19:12:10.407Z,27.97
2023-03-02T19:14:31.659Z,27.30
2023-03-02T19:16:53.122Z,28.90
2023-03-02T19:19:14.501Z,27.73
2023-03-02T19:21:36.053Z,26.33
2023-03-02T19:23:59.306Z,27.67
2023-03-02T19:26:20.360Z,29.27
2023-03-02T19:28:41.734Z,28.50
2023-03-02T19:31:03.909Z,28.60
2023-03-02T19:33:26.910Z,28.37
2023-03-02T19:35:48.198Z,28.83
2023-03-02T19:38:09.961Z,28.50
2023-03-02T19:40:32.647Z,29.47
2023-03-02T19:42:53.875Z,28.47
2023-03-02T19:45:15.962Z,29.20
2023-03-02T19:47:36.908Z,29.83
2023-03-02T19:49:58.141Z,29.63
2023-03-02T19:52:19.279Z,29.43
2023-03-02T19:54:40.454Z,28.53
2023-03-02T19:57:03.627Z,30.53
2023-03-02T19:59:25.441Z,30.37
2023-03-02T20:01:47.768Z,32.77
2023-03-02T20:04:09.508Z,31.27
2023-03-02T20:06:31.446Z,32.30
2023-03-02T20:08:52.824Z,33.70
2023-03-02T20:11:14.057Z,30.97
2023-03-02T20:13:36.920Z,31.80
2023-03-02T20:15:58.893Z,31.17
2023-03-02T20:18:20.658Z,31.93
2023-03-02T20:20:42.225Z,32.00
2023-03-02T20:23:04.715Z,32.53
2023-03-02T20:25:25.967Z,33.50
2023-03-02T20:27:49.007Z,31.87
2023-03-02T20:30:14.578Z,33.47
2023-03-02T20:32:35.823Z,33.90
2023-03-02T20:34:57.055Z,35.07
2023-03-02T20:37:18.322Z,35.43
2023-03-02T20:39:39.848Z,34.67
2023-03-02T20:42:01.079Z,32.80
2023-03-02T20:44:23.234Z,34.27
2023-03-02T20:46:47.291Z,47.00
2023-03-02T20:49:09.519Z,33.87
2023-03-02T20:51:30.849Z,38.00
2023-03-02T20:53:53.141Z,33.23
2023-03-02T20:56:15.165Z,32.40
2023-03-02T20:58:41.521Z,35.43
2023-03-02T21:01:02.551Z,35.57
2023-03-02T21:03:25.257Z,33.40
2023-03-02T21:05:47.121Z,36.07
2023-03-02T21:08:09.000Z,35.90
2023-03-02T21:10:31.174Z,46.93
2023-03-02T21:12:52.241Z,47.37
2023-03-02T21:15:13.697Z,34.33
2023-03-02T21:17:35.928Z,33.23
2023-03-02T21:19:58.798Z,37.77
2023-03-02T21:22:20.601Z,35.03
2023-03-02T21:24:41.530Z,51.63
2023-03-02T21:27:03.197Z,36.30
2023-03-02T21:29:25.119Z,35.63
2023-03-02T21:31:47.731Z,37.20
2023-03-02T21:34:08.771Z,36.73
2023-03-02T21:36:31.650Z,34.93
2023-03-02T21:38:53.609Z,35.03
2023-03-02T21:41:14.976Z,36.27
2023-03-02T21:43:36.465Z,35.30
2023-03-02T21:45:58.458Z,32.90
2023-03-02T21:48:22.818Z,34.10
2023-03-02T21:50:44.141Z,33.73
2023-03-02T21:53:06.371Z,33.33
2023-03-02T21:55:28.276Z,35.03
2023-03-02T21:57:49.243Z,34.93
2023-03-02T22:00:11.753Z,35.13
2023-03-02T22:02:33.083Z,34.83
2023-03-02T22:04:54.193Z,34.30
2023-03-02T22:07:15.561Z,36.37
2023-03-02T22:09:38.357Z,36.23
2023-03-02T22:11:59.318Z,35.27
2023-03-02T22:14:20.846Z,35.67
2023-03-02T22:16:42.629Z,35.83
2023-03-02T22:19:07.633Z,35.87
2023-03-02T22:21:30.085Z,35.77
2023-03-02T22:23:51.324Z,35.80
2023-03-02T22:26:15.686Z,34.17
2023-03-02T22:28:40.945Z,35.17
2023-03-02T22:31:02.393Z,35.57
2023-03-02T22:33:24.543Z,35.93
2023-03-02T22:35:45.524Z,35.03
2023-03-02T22:38:08.634Z,36.00
2023-03-02T22:40:30.862Z,34.40
2023-03-02T22:42:56.507Z,35.43
2023-03-02T22:45:19.584Z,35.33
2023-03-02T22:47:40.764Z,35.87
2023-03-02T22:50:12.224Z,35.80
2023-03-02T22:52:37.200Z,38.03
2023-03-02T22:54:58.569Z,35.93
2023-03-02T22:57:28.016Z,35.67
2023-03-02T22:59:50.661Z,34.70
2023-03-02T23:02:16.293Z,34.70
2023-03-02T23:04:37.985Z,35.83
2023-03-02T23:07:00.992Z,33.23
2023-03-02T23:09:23.410Z,34.27
2023-03-02T23:11:45.046Z,34.97
2023-03-02T23:14:11.745Z,33.67
2023-03-02T23:16:35.716Z,35.20
2023-03-02T23:18:59.252Z,34.53
2023-03-02T23:21:21.680Z,34.03
2023-03-02T23:23:43.015Z,34.50
2023-03-02T23:26:04.278Z,33.77
2023-03-02T23:28:25.586Z,34.80
2023-03-02T23:30:47.649Z,33.97
2023-03-02T23:33:10.353Z,35.33
2023-03-02T23:35:31.530Z,35.27
2023-03-02T23:37:52.894Z,33.00
2023-03-02T23:40:14.681Z,34.60
2023-03-02T23:42:36.179Z,35.50
2023-03-02T23:44:57.662Z,33.60
2023-03-02T23:47:19.010Z,33.57
2023-03-02T23:49:41.492Z,34.23
2023-03-02T23:52:03.614Z,32.73
2023-03-02T23:54:24.531Z,32.20
2023-03-02T23:56:45.729Z,32.07
2023-03-02T23:59:06.920Z,32.33
